Aeroporto :
LOGIN :

Iscrizione | Disclaimer

   EN    FR    IT 

 










Sommario :    VFR   VFR Marginale   IFR   IFR Intensivo   IFR Molto Intensivo
Visibilità : 
Base nubi : 
>= 8 km
>= 3000ft
5 / 8 km
1000 / 3000 ft
1500m / 5 km
500 / 1000 ft
800 / 1500m
200 / 500 ft
< 800m
< 200 ft
Simboli :   Temporali  Nebbia  Neve Forte  Precipitazioni Forti  Vento > 20 kt
SIGMETs :   Varie  Temporali  Ghiacco  Turbolenza  Onda orograficha  Ceneri Vulcaniche






- Altitudine del aeroporto : 364 ft
- Codice IATA : FRA


EDDF - Frankfurt Int.

ULTIMO METAR :
  • 140620Z VRB01KT CAVOK 12/12 Q1015 NOSIG

METARs OBSOLETI :
  • 140550Z VRB01KT CAVOK 12/12 Q1015 NOSIG
  • 140520Z VRB01KT CAVOK 12/12 Q1015 NOSIG
  • 140450Z VRB02KT CAVOK 13/12 Q1014 NOSIG
  • 140420Z 21001KT CAVOK 14/13 Q1014 NOSIG
  • 140350Z 24004KT 190V280 CAVOK 12/12 Q1014 NOSIG

TAF TAF EDDF
Valido dal 14 a 06 ore il 15 a 12 ore UTC


140500Z 1406/1512 20004KT CAVOK
BECMG 1413/1415 10005KT
BECMG 1419/1422 03004KT
BECMG 1509/1511 12005KT



MetMap, La meteo Aeronautica in un colpo d'occhio ! - Copyright ORBIFLY Dicembre 2007 - Disclaimer

ORBIFLY MET'MAP TEAM :

Programmazione e sviluppo : Alexandra Zaïnal
Concezione e sviluppo : Baudouin d'Aumeries
Co-Programmazione e sviluppo : Marc-Olivier Méhu
Supporto tecnico e logistico : Manuel Goepfert
Aiuto per la traduzione : Arnaldo La Scala

Contatto : metmap@orbifly.com




FONTI E CREDITI :

   NOAA